sensor_id;sensor_type;location;lat;lon;timestamp;pressure;altitude;pressure_sealevel;temperature;humidity
15308;BME280;7755;52.208;6.964;2023-05-18T00:02:30;102465.28;;;8.38;75.80
15308;BME280;7755;52.208;6.964;2023-05-18T00:06:33;102459.72;;;8.32;76.37
15308;BME280;7755;52.208;6.964;2023-05-18T00:10:36;102451.47;;;8.25;77.30
15308;BME280;7755;52.208;6.964;2023-05-18T00:14:39;102453.22;;;8.18;77.87
15308;BME280;7755;52.208;6.964;2023-05-18T00:18:44;102456.50;;;8.13;77.83
15308;BME280;7755;52.208;6.964;2023-05-18T00:22:47;102454.31;;;8.09;77.90
15308;BME280;7755;52.208;6.964;2023-05-18T00:26:51;102455.53;;;8.06;78.59
15308;BME280;7755;52.208;6.964;2023-05-18T00:30:54;102452.34;;;8.03;78.30
15308;BME280;7755;52.208;6.964;2023-05-18T00:34:58;102466.41;;;7.98;79.14
15308;BME280;7755;52.208;6.964;2023-05-18T00:39:02;102460.72;;;7.93;79.33
15308;BME280;7755;52.208;6.964;2023-05-18T00:43:05;102452.28;;;7.88;79.34
15308;BME280;7755;52.208;6.964;2023-05-18T00:47:08;102455.19;;;7.86;79.92
15308;BME280;7755;52.208;6.964;2023-05-18T00:51:13;102461.13;;;7.82;80.21
15308;BME280;7755;52.208;6.964;2023-05-18T00:55:17;102460.34;;;7.73;80.76
15308;BME280;7755;52.208;6.964;2023-05-18T00:59:20;102467.44;;;7.74;81.01
15308;BME280;7755;52.208;6.964;2023-05-18T01:03:23;102465.25;;;7.70;81.01
15308;BME280;7755;52.208;6.964;2023-05-18T01:07:29;102454.59;;;7.68;81.40
15308;BME280;7755;52.208;6.964;2023-05-18T01:11:49;102460.34;;;7.65;82.04
15308;BME280;7755;52.208;6.964;2023-05-18T01:15:56;102464.09;;;7.64;81.83
15308;BME280;7755;52.208;6.964;2023-05-18T01:20:14;102457.19;;;7.61;82.37
15308;BME280;7755;52.208;6.964;2023-05-18T01:24:28;102464.66;;;7.51;83.01
15308;BME280;7755;52.208;6.964;2023-05-18T01:28:35;102475.84;;;7.48;83.06
15308;BME280;7755;52.208;6.964;2023-05-18T01:32:38;102472.00;;;7.43;83.56
15308;BME280;7755;52.208;6.964;2023-05-18T01:36:42;102468.81;;;7.39;84.00
15308;BME280;7755;52.208;6.964;2023-05-18T01:40:52;102470.53;;;7.32;84.37
15308;BME280;7755;52.208;6.964;2023-05-18T01:45:02;102474.09;;;7.24;85.35
15308;BME280;7755;52.208;6.964;2023-05-18T01:49:13;102468.38;;;7.19;85.26
15308;BME280;7755;52.208;6.964;2023-05-18T01:53:22;102468.91;;;7.15;85.71
15308;BME280;7755;52.208;6.964;2023-05-18T01:57:26;102480.41;;;7.08;86.19
15308;BME280;7755;52.208;6.964;2023-05-18T02:01:33;102479.06;;;7.04;86.40
15308;BME280;7755;52.208;6.964;2023-05-18T02:05:36;102476.88;;;7.00;86.36
15308;BME280;7755;52.208;6.964;2023-05-18T02:09:39;102489.91;;;6.96;87.27
15308;BME280;7755;52.208;6.964;2023-05-18T02:13:42;102489.06;;;6.96;87.14
15308;BME280;7755;52.208;6.964;2023-05-18T02:17:46;102482.31;;;6.92;87.20
15308;BME280;7755;52.208;6.964;2023-05-18T02:21:49;102480.78;;;6.89;87.35
15308;BME280;7755;52.208;6.964;2023-05-18T02:25:52;102484.03;;;6.84;87.54
15308;BME280;7755;52.208;6.964;2023-05-18T02:29:58;102480.34;;;6.77;88.11
15308;BME280;7755;52.208;6.964;2023-05-18T02:34:02;102476.28;;;6.73;88.15
15308;BME280;7755;52.208;6.964;2023-05-18T02:38:05;102478.81;;;6.67;88.84
15308;BME280;7755;52.208;6.964;2023-05-18T02:42:08;102476.44;;;6.64;89.02
15308;BME280;7755;52.208;6.964;2023-05-18T02:46:11;102475.78;;;6.62;89.11
15308;BME280;7755;52.208;6.964;2023-05-18T02:50:16;102476.97;;;6.59;89.17
15308;BME280;7755;52.208;6.964;2023-05-18T02:54:20;102471.22;;;6.54;89.68
15308;BME280;7755;52.208;6.964;2023-05-18T02:58:23;102473.25;;;6.52;89.59
15308;BME280;7755;52.208;6.964;2023-05-18T03:02:48;102476.16;;;6.50;89.58
15308;BME280;7755;52.208;6.964;2023-05-18T03:06:53;102470.03;;;6.48;89.60
15308;BME280;7755;52.208;6.964;2023-05-18T03:10:58;102469.56;;;6.45;89.72
15308;BME280;7755;52.208;6.964;2023-05-18T03:15:01;102471.91;;;6.40;90.08
15308;BME280;7755;52.208;6.964;2023-05-18T03:19:03;102475.94;;;6.36;90.33
15308;BME280;7755;52.208;6.964;2023-05-18T03:23:12;102476.97;;;6.35;90.39
15308;BME280;7755;52.208;6.964;2023-05-18T03:27:16;102477.16;;;6.33;90.61
15308;BME280;7755;52.208;6.964;2023-05-18T03:31:20;102477.31;;;6.32;90.75
15308;BME280;7755;52.208;6.964;2023-05-18T03:35:23;102480.34;;;6.28;90.79
15308;BME280;7755;52.208;6.964;2023-05-18T03:39:28;102480.53;;;6.27;91.13
15308;BME280;7755;52.208;6.964;2023-05-18T03:43:31;102479.50;;;6.28;91.28
15308;BME280;7755;52.208;6.964;2023-05-18T03:47:35;102479.69;;;6.26;91.15
15308;BME280;7755;52.208;6.964;2023-05-18T03:51:39;102480.19;;;6.22;91.22
15308;BME280;7755;52.208;6.964;2023-05-18T03:55:43;102483.06;;;6.20;91.82
15308;BME280;7755;52.208;6.964;2023-05-18T03:59:46;102480.34;;;6.20;91.61
15308;BME280;7755;52.208;6.964;2023-05-18T04:03:50;102485.25;;;6.17;91.84
15308;BME280;7755;52.208;6.964;2023-05-18T04:07:58;102487.09;;;6.16;91.80
15308;BME280;7755;52.208;6.964;2023-05-18T04:12:03;102489.97;;;6.15;92.24
15308;BME280;7755;52.208;6.964;2023-05-18T04:16:06;102491.66;;;6.16;92.20
15308;BME280;7755;52.208;6.964;2023-05-18T04:20:11;102495.88;;;6.18;92.89
15308;BME280;7755;52.208;6.964;2023-05-18T04:24:15;102498.41;;;6.20;92.90
15308;BME280;7755;52.208;6.964;2023-05-18T04:28:19;102502.47;;;6.24;93.02
15308;BME280;7755;52.208;6.964;2023-05-18T04:32:22;102500.09;;;6.29;92.67
15308;BME280;7755;52.208;6.964;2023-05-18T04:36:27;102507.72;;;6.34;93.16
15308;BME280;7755;52.208;6.964;2023-05-18T04:40:31;102516.34;;;6.37;93.07
15308;BME280;7755;52.208;6.964;2023-05-18T04:44:37;102513.09;;;6.42;93.37
15308;BME280;7755;52.208;6.964;2023-05-18T04:48:40;102518.34;;;6.43;93.48
15308;BME280;7755;52.208;6.964;2023-05-18T04:52:46;102527.31;;;6.52;93.27
15308;BME280;7755;52.208;6.964;2023-05-18T04:56:52;102527.66;;;6.57;93.08
15308;BME280;7755;52.208;6.964;2023-05-18T05:00:56;102521.38;;;6.65;93.31
15308;BME280;7755;52.208;6.964;2023-05-18T05:05:01;102522.53;;;6.70;93.04
15308;BME280;7755;52.208;6.964;2023-05-18T05:09:04;102521.69;;;6.70;93.43
15308;BME280;7755;52.208;6.964;2023-05-18T05:13:07;102531.50;;;6.79;92.94
15308;BME280;7755;52.208;6.964;2023-05-18T05:17:12;102528.78;;;6.87;92.81
15308;BME280;7755;52.208;6.964;2023-05-18T05:21:16;102535.72;;;6.98;92.93
15308;BME280;7755;52.208;6.964;2023-05-18T05:25:19;102531.13;;;7.06;92.56
15308;BME280;7755;52.208;6.964;2023-05-18T05:29:23;102544.44;;;7.16;92.20
15308;BME280;7755;52.208;6.964;2023-05-18T05:33:29;102537.34;;;7.15;91.83
15308;BME280;7755;52.208;6.964;2023-05-18T05:37:33;102538.03;;;7.25;91.82
15308;BME280;7755;52.208;6.964;2023-05-18T05:41:37;102533.91;;;7.37;91.39
15308;BME280;7755;52.208;6.964;2023-05-18T05:45:40;102531.84;;;7.48;90.99
15308;BME280;7755;52.208;6.964;2023-05-18T05:49:47;102535.88;;;7.60;90.60
15308;BME280;7755;52.208;6.964;2023-05-18T05:53:50;102542.22;;;7.75;89.57
15308;BME280;7755;52.208;6.964;2023-05-18T05:57:55;102544.16;;;7.89;88.35
15308;BME280;7755;52.208;6.964;2023-05-18T06:01:58;102542.38;;;8.05;87.38
15308;BME280;7755;52.208;6.964;2023-05-18T06:06:03;102548.75;;;8.20;85.55
15308;BME280;7755;52.208;6.964;2023-05-18T06:10:07;102544.50;;;8.48;84.63
15308;BME280;7755;52.208;6.964;2023-05-18T06:14:10;102542.50;;;8.80;82.71
15308;BME280;7755;52.208;6.964;2023-05-18T06:18:13;102556.22;;;9.01;81.38
15308;BME280;7755;52.208;6.964;2023-05-18T06:22:19;102543.06;;;9.28;80.81
15308;BME280;7755;52.208;6.964;2023-05-18T06:26:42;102543.69;;;9.60;79.11
15308;BME280;7755;52.208;6.964;2023-05-18T06:31:04;102546.47;;;9.81;77.04
15308;BME280;7755;52.208;6.964;2023-05-18T06:35:19;102546.06;;;9.99;76.44
15308;BME280;7755;52.208;6.964;2023-05-18T06:39:24;102542.09;;;10.16;76.20
15308;BME280;7755;52.208;6.964;2023-05-18T06:43:27;102553.97;;;10.30;73.50
15308;BME280;7755;52.208;6.964;2023-05-18T06:47:37;102548.06;;;10.48;73.67
15308;BME280;7755;52.208;6.964;2023-05-18T06:51:40;102555.78;;;10.65;72.73
15308;BME280;7755;52.208;6.964;2023-05-18T06:55:46;102554.50;;;10.89;71.28
15308;BME280;7755;52.208;6.964;2023-05-18T06:59:49;102551.13;;;11.15;67.78
15308;BME280;7755;52.208;6.964;2023-05-18T07:03:54;102550.09;;;11.51;66.64
15308;BME280;7755;52.208;6.964;2023-05-18T07:07:57;102552.84;;;11.92;64.58
15308;BME280;7755;52.208;6.964;2023-05-18T07:12:01;102548.53;;;12.24;62.23
15308;BME280;7755;52.208;6.964;2023-05-18T07:16:05;102546.88;;;12.30;59.34
15308;BME280;7755;52.208;6.964;2023-05-18T07:20:09;102548.78;;;12.56;58.80
15308;BME280;7755;52.208;6.964;2023-05-18T07:24:12;102550.47;;;12.83;57.87
15308;BME280;7755;52.208;6.964;2023-05-18T07:28:16;102551.75;;;12.94;56.57
15308;BME280;7755;52.208;6.964;2023-05-18T07:32:29;102562.66;;;13.14;55.91
15308;BME280;7755;52.208;6.964;2023-05-18T07:36:58;102555.63;;;13.64;53.57
15308;BME280;7755;52.208;6.964;2023-05-18T07:41:07;102554.53;;;13.72;52.52
15308;BME280;7755;52.208;6.964;2023-05-18T07:45:12;102558.00;;;13.99;52.19
15308;BME280;7755;52.208;6.964;2023-05-18T07:49:16;102562.19;;;14.40;50.76
15308;BME280;7755;52.208;6.964;2023-05-18T07:53:19;102560.88;;;14.81;49.75
15308;BME280;7755;52.208;6.964;2023-05-18T07:57:23;102575.75;;;14.91;48.44
15308;BME280;7755;52.208;6.964;2023-05-18T08:01:28;102571.38;;;14.84;47.76
15308;BME280;7755;52.208;6.964;2023-05-18T08:05:32;102568.84;;;14.82;48.13
15308;BME280;7755;52.208;6.964;2023-05-18T08:09:36;102576.50;;;14.73;47.10
15308;BME280;7755;52.208;6.964;2023-05-18T08:13:39;102571.69;;;14.69;47.43
15308;BME280;7755;52.208;6.964;2023-05-18T08:17:44;102574.44;;;14.69;47.25
15308;BME280;7755;52.208;6.964;2023-05-18T08:21:48;102571.22;;;14.79;46.63
15308;BME280;7755;52.208;6.964;2023-05-18T08:25:56;102576.47;;;14.80;46.05
15308;BME280;7755;52.208;6.964;2023-05-18T08:30:24;102579.66;;;14.77;46.64
15308;BME280;7755;52.208;6.964;2023-05-18T08:34:58;102565.00;;;14.90;46.21
15308;BME280;7755;52.208;6.964;2023-05-18T08:39:26;102570.03;;;14.93;46.62
15308;BME280;7755;52.208;6.964;2023-05-18T08:43:36;102562.38;;;15.01;46.42
15308;BME280;7755;52.208;6.964;2023-05-18T08:47:40;102564.09;;;14.96;45.83
15308;BME280;7755;52.208;6.964;2023-05-18T08:51:46;102560.28;;;14.97;45.77
15308;BME280;7755;52.208;6.964;2023-05-18T08:55:52;102567.53;;;15.35;45.98
15308;BME280;7755;52.208;6.964;2023-05-18T08:59:57;102555.16;;;15.87;44.78
15308;BME280;7755;52.208;6.964;2023-05-18T09:04:03;102552.97;;;16.37;43.29
15308;BME280;7755;52.208;6.964;2023-05-18T09:08:08;102550.50;;;16.48;42.36
15308;BME280;7755;52.208;6.964;2023-05-18T09:12:12;102542.75;;;16.56;42.08
15308;BME280;7755;52.208;6.964;2023-05-18T09:16:16;102539.75;;;16.46;42.91
15308;BME280;7755;52.208;6.964;2023-05-18T09:20:24;102534.69;;;16.31;41.55
15308;BME280;7755;52.208;6.964;2023-05-18T09:24:44;102533.06;;;16.42;42.97
15308;BME280;7755;52.208;6.964;2023-05-18T09:33:21;102526.22;;;16.75;41.39
15308;BME280;7755;52.208;6.964;2023-05-18T09:37:26;102527.59;;;16.54;41.68
15308;BME280;7755;52.208;6.964;2023-05-18T09:41:30;102525.59;;;16.73;41.23
15308;BME280;7755;52.208;6.964;2023-05-18T09:45:33;102513.56;;;17.09;40.78
15308;BME280;7755;52.208;6.964;2023-05-18T09:49:40;102522.72;;;17.50;40.12
15308;BME280;7755;52.208;6.964;2023-05-18T09:53:57;102510.13;;;17.54;39.48
15308;BME280;7755;52.208;6.964;2023-05-18T09:58:21;102514.03;;;17.29;39.99
15308;BME280;7755;52.208;6.964;2023-05-18T10:02:24;102512.16;;;17.82;39.92
15308;BME280;7755;52.208;6.964;2023-05-18T10:06:28;102511.19;;;17.76;39.05
15308;BME280;7755;52.208;6.964;2023-05-18T10:10:38;102502.16;;;17.92;39.23
15308;BME280;7755;52.208;6.964;2023-05-18T10:15:07;102506.00;;;18.37;38.54
15308;BME280;7755;52.208;6.964;2023-05-18T10:19:24;102497.81;;;18.42;37.56
15308;BME280;7755;52.208;6.964;2023-05-18T10:23:34;102508.50;;;18.38;38.38
15308;BME280;7755;52.208;6.964;2023-05-18T10:27:45;102499.84;;;18.80;38.06
15308;BME280;7755;52.208;6.964;2023-05-18T10:31:52;102492.47;;;19.02;36.88
15308;BME280;7755;52.208;6.964;2023-05-18T10:35:57;102481.34;;;19.14;36.44
15308;BME280;7755;52.208;6.964;2023-05-18T10:40:09;102496.84;;;18.98;36.87
15308;BME280;7755;52.208;6.964;2023-05-18T10:44:12;102492.38;;;19.36;36.89
15308;BME280;7755;52.208;6.964;2023-05-18T10:48:18;102489.97;;;19.40;36.02
15308;BME280;7755;52.208;6.964;2023-05-18T10:52:30;102483.72;;;19.49;36.46
15308;BME280;7755;52.208;6.964;2023-05-18T10:56:34;102477.91;;;19.24;35.77
15308;BME280;7755;52.208;6.964;2023-05-18T11:00:39;102479.81;;;19.45;36.02
15308;BME280;7755;52.208;6.964;2023-05-18T11:04:46;102472.84;;;19.59;34.86
15308;BME280;7755;52.208;6.964;2023-05-18T11:09:27;102469.38;;;19.25;36.41
15308;BME280;7755;52.208;6.964;2023-05-18T11:13:53;102462.59;;;19.16;36.96
15308;BME280;7755;52.208;6.964;2023-05-18T11:18:18;102458.78;;;19.39;36.90
15308;BME280;7755;52.208;6.964;2023-05-18T11:22:39;102453.00;;;19.62;35.81
15308;BME280;7755;52.208;6.964;2023-05-18T11:26:43;102449.66;;;19.82;35.31
15308;BME280;7755;52.208;6.964;2023-05-18T11:30:48;102444.03;;;19.99;35.07
15308;BME280;7755;52.208;6.964;2023-05-18T11:34:52;102442.78;;;20.17;35.42
15308;BME280;7755;52.208;6.964;2023-05-18T11:39:04;102448.44;;;20.00;34.90
15308;BME280;7755;52.208;6.964;2023-05-18T11:43:08;102442.66;;;20.02;34.91
15308;BME280;7755;52.208;6.964;2023-05-18T11:47:17;102440.91;;;20.23;35.25
15308;BME280;7755;52.208;6.964;2023-05-18T11:51:20;102441.69;;;20.45;34.36
15308;BME280;7755;52.208;6.964;2023-05-18T11:55:37;102440.44;;;19.72;34.49
15308;BME280;7755;52.208;6.964;2023-05-18T11:59:54;102434.81;;;19.88;35.55
15308;BME280;7755;52.208;6.964;2023-05-18T12:04:09;102433.06;;;20.09;35.44
15308;BME280;7755;52.208;6.964;2023-05-18T12:08:15;102443.03;;;20.42;34.77
15308;BME280;7755;52.208;6.964;2023-05-18T12:12:20;102430.53;;;20.67;34.69
15308;BME280;7755;52.208;6.964;2023-05-18T12:16:25;102428.72;;;20.88;33.79
15308;BME280;7755;52.208;6.964;2023-05-18T12:20:28;102428.88;;;21.23;34.57
15308;BME280;7755;52.208;6.964;2023-05-18T12:24:32;102411.50;;;20.76;33.91
15308;BME280;7755;52.208;6.964;2023-05-18T12:28:37;102422.19;;;21.09;33.89
15308;BME280;7755;52.208;6.964;2023-05-18T12:32:43;102420.88;;;21.22;33.18
15308;BME280;7755;52.208;6.964;2023-05-18T12:36:53;102406.88;;;20.86;33.26
15308;BME280;7755;52.208;6.964;2023-05-18T12:40:58;102401.41;;;21.02;32.24
15308;BME280;7755;52.208;6.964;2023-05-18T12:45:04;102404.47;;;21.05;33.06
15308;BME280;7755;52.208;6.964;2023-05-18T12:49:11;102394.03;;;21.22;33.08
15308;BME280;7755;52.208;6.964;2023-05-18T12:53:21;102393.47;;;21.20;33.99
15308;BME280;7755;52.208;6.964;2023-05-18T12:57:25;102392.22;;;21.48;32.71
15308;BME280;7755;52.208;6.964;2023-05-18T13:01:41;102388.63;;;21.48;32.74
15308;BME280;7755;52.208;6.964;2023-05-18T13:06:01;102395.56;;;21.71;33.20
15308;BME280;7755;52.208;6.964;2023-05-18T13:10:06;102375.66;;;21.84;31.90
15308;BME280;7755;52.208;6.964;2023-05-18T13:18:13;102378.13;;;21.86;32.66
15308;BME280;7755;52.208;6.964;2023-05-18T13:22:17;102372.31;;;21.72;32.54
15308;BME280;7755;52.208;6.964;2023-05-18T13:26:20;102362.09;;;21.77;32.56
15308;BME280;7755;52.208;6.964;2023-05-18T13:30:23;102377.88;;;21.82;32.71
15308;BME280;7755;52.208;6.964;2023-05-18T13:34:28;102377.59;;;22.04;32.67
15308;BME280;7755;52.208;6.964;2023-05-18T13:38:31;102369.81;;;21.80;32.11
15308;BME280;7755;52.208;6.964;2023-05-18T13:42:36;102365.94;;;21.61;32.11
15308;BME280;7755;52.208;6.964;2023-05-18T13:46:39;102359.88;;;21.69;31.55
15308;BME280;7755;52.208;6.964;2023-05-18T13:50:43;102349.34;;;21.87;32.07
15308;BME280;7755;52.208;6.964;2023-05-18T13:54:46;102350.19;;;21.97;32.73
15308;BME280;7755;52.208;6.964;2023-05-18T13:58:49;102350.44;;;21.80;31.79
15308;BME280;7755;52.208;6.964;2023-05-18T14:02:52;102349.06;;;21.78;32.35
15308;BME280;7755;52.208;6.964;2023-05-18T14:06:56;102335.75;;;21.49;31.98
15308;BME280;7755;52.208;6.964;2023-05-18T14:10:59;102329.91;;;21.46;32.00
15308;BME280;7755;52.208;6.964;2023-05-18T14:15:03;102325.50;;;21.50;32.68
15308;BME280;7755;52.208;6.964;2023-05-18T14:19:06;102325.53;;;21.55;32.40
15308;BME280;7755;52.208;6.964;2023-05-18T14:23:10;102323.84;;;21.49;32.82
15308;BME280;7755;52.208;6.964;2023-05-18T14:27:13;102322.75;;;21.50;32.30
15308;BME280;7755;52.208;6.964;2023-05-18T14:31:16;102319.69;;;21.36;31.97
15308;BME280;7755;52.208;6.964;2023-05-18T14:35:19;102309.69;;;21.40;32.56
15308;BME280;7755;52.208;6.964;2023-05-18T14:39:23;102304.72;;;21.37;32.83
15308;BME280;7755;52.208;6.964;2023-05-18T14:43:26;102298.63;;;21.40;32.88
15308;BME280;7755;52.208;6.964;2023-05-18T14:47:29;102300.03;;;21.53;33.11
15308;BME280;7755;52.208;6.964;2023-05-18T14:51:32;102304.44;;;21.29;32.96
15308;BME280;7755;52.208;6.964;2023-05-18T14:55:36;102299.13;;;21.17;33.38
15308;BME280;7755;52.208;6.964;2023-05-18T14:59:38;102293.03;;;21.20;33.60
15308;BME280;7755;52.208;6.964;2023-05-18T15:03:41;102296.28;;;20.91;33.38
15308;BME280;7755;52.208;6.964;2023-05-18T15:07:44;102294.88;;;20.84;33.94
15308;BME280;7755;52.208;6.964;2023-05-18T15:11:48;102299.81;;;20.77;34.12
15308;BME280;7755;52.208;6.964;2023-05-18T15:15:52;102297.94;;;20.87;33.93
15308;BME280;7755;52.208;6.964;2023-05-18T15:19:55;102295.19;;;20.87;32.97
15308;BME280;7755;52.208;6.964;2023-05-18T15:23:58;102294.31;;;20.82;33.50
15308;BME280;7755;52.208;6.964;2023-05-18T15:28:02;102281.03;;;20.74;33.38
15308;BME280;7755;52.208;6.964;2023-05-18T15:32:06;102278.16;;;20.53;34.06
15308;BME280;7755;52.208;6.964;2023-05-18T15:36:09;102279.97;;;20.37;34.51
15308;BME280;7755;52.208;6.964;2023-05-18T15:40:12;102275.19;;;20.23;35.13
15308;BME280;7755;52.208;6.964;2023-05-18T15:44:16;102283.47;;;20.23;34.91
15308;BME280;7755;52.208;6.964;2023-05-18T15:48:21;102282.00;;;20.10;34.71
15308;BME280;7755;52.208;6.964;2023-05-18T15:52:24;102275.63;;;20.04;34.81
15308;BME280;7755;52.208;6.964;2023-05-18T15:56:27;102275.00;;;19.92;34.74
15308;BME280;7755;52.208;6.964;2023-05-18T16:00:33;102275.56;;;19.94;34.75
15308;BME280;7755;52.208;6.964;2023-05-18T16:04:36;102273.22;;;19.76;34.55
15308;BME280;7755;52.208;6.964;2023-05-18T16:08:39;102264.31;;;19.69;34.68
15308;BME280;7755;52.208;6.964;2023-05-18T16:12:42;102275.28;;;19.58;34.57
15308;BME280;7755;52.208;6.964;2023-05-18T16:16:49;102271.91;;;19.56;35.28
15308;BME280;7755;52.208;6.964;2023-05-18T16:20:53;102274.06;;;19.49;35.34
15308;BME280;7755;52.208;6.964;2023-05-18T16:24:56;102269.56;;;19.43;35.22
15308;BME280;7755;52.208;6.964;2023-05-18T16:29:00;102259.09;;;19.40;35.65
15308;BME280;7755;52.208;6.964;2023-05-18T16:33:06;102260.34;;;19.27;35.42
15308;BME280;7755;52.208;6.964;2023-05-18T16:37:09;102257.50;;;19.17;35.47
15308;BME280;7755;52.208;6.964;2023-05-18T16:41:12;102254.88;;;19.05;35.62
15308;BME280;7755;52.208;6.964;2023-05-18T16:45:16;102258.25;;;18.86;35.57
15308;BME280;7755;52.208;6.964;2023-05-18T16:49:21;102260.25;;;18.95;35.68
15308;BME280;7755;52.208;6.964;2023-05-18T16:53:24;102254.59;;;18.80;35.76
15308;BME280;7755;52.208;6.964;2023-05-18T16:57:27;102254.03;;;18.61;36.12
15308;BME280;7755;52.208;6.964;2023-05-18T17:01:37;102261.19;;;18.57;36.44
15308;BME280;7755;52.208;6.964;2023-05-18T17:05:55;102251.75;;;18.53;36.68
15308;BME280;7755;52.208;6.964;2023-05-18T17:10:05;102249.56;;;18.55;37.04
15308;BME280;7755;52.208;6.964;2023-05-18T17:14:09;102248.28;;;18.41;36.89
15308;BME280;7755;52.208;6.964;2023-05-18T17:18:14;102246.41;;;18.24;37.12
15308;BME280;7755;52.208;6.964;2023-05-18T17:22:19;102251.16;;;18.29;37.52
15308;BME280;7755;52.208;6.964;2023-05-18T17:26:22;102249.44;;;18.23;37.66
15308;BME280;7755;52.208;6.964;2023-05-18T17:30:26;102246.25;;;18.14;37.86
15308;BME280;7755;52.208;6.964;2023-05-18T17:34:29;102251.38;;;18.06;38.39
15308;BME280;7755;52.208;6.964;2023-05-18T17:38:34;102248.63;;;18.06;38.50
15308;BME280;7755;52.208;6.964;2023-05-18T17:42:37;102244.28;;;17.93;38.64
15308;BME280;7755;52.208;6.964;2023-05-18T17:46:41;102243.31;;;17.82;38.92
15308;BME280;7755;52.208;6.964;2023-05-18T17:50:51;102237.78;;;17.65;39.01
15308;BME280;7755;52.208;6.964;2023-05-18T17:55:01;102248.22;;;17.63;39.38
15308;BME280;7755;52.208;6.964;2023-05-18T17:59:05;102238.94;;;17.53;39.76
15308;BME280;7755;52.208;6.964;2023-05-18T18:03:10;102241.75;;;17.24;39.71
15308;BME280;7755;52.208;6.964;2023-05-18T18:07:16;102244.91;;;17.16;40.01
15308;BME280;7755;52.208;6.964;2023-05-18T18:11:22;102251.97;;;17.12;40.47
15308;BME280;7755;52.208;6.964;2023-05-18T18:15:44;102244.47;;;17.07;40.59
15308;BME280;7755;52.208;6.964;2023-05-18T18:19:49;102251.69;;;16.97;40.83
15308;BME280;7755;52.208;6.964;2023-05-18T18:23:59;102250.50;;;16.92;41.02
15308;BME280;7755;52.208;6.964;2023-05-18T18:28:06;102248.72;;;16.86;41.23
15308;BME280;7755;52.208;6.964;2023-05-18T18:32:15;102256.78;;;16.76;41.63
15308;BME280;7755;52.208;6.964;2023-05-18T18:36:20;102262.63;;;16.68;41.73
15308;BME280;7755;52.208;6.964;2023-05-18T18:40:32;102254.53;;;16.61;42.34
15308;BME280;7755;52.208;6.964;2023-05-18T18:44:50;102266.94;;;16.52;42.62
15308;BME280;7755;52.208;6.964;2023-05-18T18:49:11;102263.16;;;16.42;43.00
15308;BME280;7755;52.208;6.964;2023-05-18T18:53:26;102264.63;;;16.32;43.31
15308;BME280;7755;52.208;6.964;2023-05-18T18:57:44;102266.88;;;16.24;43.81
15308;BME280;7755;52.208;6.964;2023-05-18T19:01:59;102266.88;;;16.12;43.85
15308;BME280;7755;52.208;6.964;2023-05-18T19:06:08;102273.22;;;16.01;44.42
15308;BME280;7755;52.208;6.964;2023-05-18T19:10:12;102272.13;;;15.90;44.71
15308;BME280;7755;52.208;6.964;2023-05-18T19:14:21;102279.75;;;15.76;44.95
15308;BME280;7755;52.208;6.964;2023-05-18T19:18:25;102281.19;;;15.67;45.28
15308;BME280;7755;52.208;6.964;2023-05-18T19:22:28;102279.84;;;15.58;45.64
15308;BME280;7755;52.208;6.964;2023-05-18T19:26:32;102289.69;;;15.47;45.88
15308;BME280;7755;52.208;6.964;2023-05-18T19:30:36;102288.56;;;15.37;46.24
15308;BME280;7755;52.208;6.964;2023-05-18T19:34:40;102297.97;;;15.29;46.67
15308;BME280;7755;52.208;6.964;2023-05-18T19:38:47;102296.03;;;15.18;46.97
15308;BME280;7755;52.208;6.964;2023-05-18T19:42:53;102297.06;;;15.05;47.28
15308;BME280;7755;52.208;6.964;2023-05-18T19:46:56;102309.38;;;14.96;47.59
15308;BME280;7755;52.208;6.964;2023-05-18T19:51:03;102306.59;;;14.84;47.98
15308;BME280;7755;52.208;6.964;2023-05-18T19:55:08;102306.53;;;14.72;48.52
15308;BME280;7755;52.208;6.964;2023-05-18T19:59:12;102307.03;;;14.63;48.85
15308;BME280;7755;52.208;6.964;2023-05-18T20:03:15;102308.88;;;14.51;49.37
15308;BME280;7755;52.208;6.964;2023-05-18T20:07:21;102310.44;;;14.40;49.59
15308;BME280;7755;52.208;6.964;2023-05-18T20:11:24;102312.47;;;14.26;49.96
15308;BME280;7755;52.208;6.964;2023-05-18T20:15:27;102313.81;;;14.17;50.21
15308;BME280;7755;52.208;6.964;2023-05-18T20:19:33;102320.84;;;14.06;50.58
15308;BME280;7755;52.208;6.964;2023-05-18T20:23:40;102320.31;;;13.98;50.68
15308;BME280;7755;52.208;6.964;2023-05-18T20:27:43;102316.38;;;13.87;51.14
15308;BME280;7755;52.208;6.964;2023-05-18T20:31:46;102314.16;;;13.77;51.61
15308;BME280;7755;52.208;6.964;2023-05-18T20:35:49;102317.19;;;13.69;51.68
15308;BME280;7755;52.208;6.964;2023-05-18T20:39:54;102323.72;;;13.61;52.28
15308;BME280;7755;52.208;6.964;2023-05-18T20:43:58;102318.53;;;13.53;52.12
15308;BME280;7755;52.208;6.964;2023-05-18T20:48:03;102318.81;;;13.45;52.80
15308;BME280;7755;52.208;6.964;2023-05-18T20:52:06;102320.13;;;13.36;53.36
15308;BME280;7755;52.208;6.964;2023-05-18T20:56:16;102327.72;;;13.27;53.76
15308;BME280;7755;52.208;6.964;2023-05-18T21:00:19;102320.81;;;13.18;54.40
15308;BME280;7755;52.208;6.964;2023-05-18T21:04:23;102326.53;;;13.10;54.33
15308;BME280;7755;52.208;6.964;2023-05-18T21:08:27;102327.41;;;13.04;55.06
15308;BME280;7755;52.208;6.964;2023-05-18T21:12:31;102340.03;;;12.98;55.52
15308;BME280;7755;52.208;6.964;2023-05-18T21:16:35;102332.91;;;12.91;55.45
15308;BME280;7755;52.208;6.964;2023-05-18T21:20:39;102330.44;;;12.82;56.05
15308;BME280;7755;52.208;6.964;2023-05-18T21:24:42;102337.81;;;12.75;56.23
15308;BME280;7755;52.208;6.964;2023-05-18T21:28:48;102334.03;;;12.70;56.62
15308;BME280;7755;52.208;6.964;2023-05-18T21:32:51;102328.59;;;12.63;57.22
15308;BME280;7755;52.208;6.964;2023-05-18T21:36:56;102334.53;;;12.53;57.50
15308;BME280;7755;52.208;6.964;2023-05-18T21:40:59;102328.88;;;12.42;57.92
15308;BME280;7755;52.208;6.964;2023-05-18T21:45:04;102329.09;;;12.34;58.81
15308;BME280;7755;52.208;6.964;2023-05-18T21:49:07;102333.50;;;12.21;59.52
15308;BME280;7755;52.208;6.964;2023-05-18T21:53:10;102326.19;;;12.09;60.30
15308;BME280;7755;52.208;6.964;2023-05-18T21:57:13;102340.44;;;12.04;60.88